sensor_id;sensor_type;location;lat;lon;timestamp;P1;durP1;ratioP1;P2;durP2;ratioP2
24030;SDS011;12240;51.142;22.486;2023-01-01T00:00:49;28.33;;;8.93;;
24030;SDS011;12240;51.142;22.486;2023-01-01T00:03:18;34.35;;;9.77;;
24030;SDS011;12240;51.142;22.486;2023-01-01T00:05:46;29.17;;;8.68;;
24030;SDS011;12240;51.142;22.486;2023-01-01T00:08:14;34.50;;;9.88;;
24030;SDS011;12240;51.142;22.486;2023-01-01T00:10:43;30.13;;;8.82;;
24030;SDS011;12240;51.142;22.486;2023-01-01T00:13:11;33.38;;;9.60;;
24030;SDS011;12240;51.142;22.486;2023-01-01T00:15:40;36.13;;;9.32;;
24030;SDS011;12240;51.142;22.486;2023-01-01T00:18:08;31.02;;;9.20;;
24030;SDS011;12240;51.142;22.486;2023-01-01T00:20:38;24.77;;;7.45;;
24030;SDS011;12240;51.142;22.486;2023-01-01T00:23:06;33.55;;;9.18;;
24030;SDS011;12240;51.142;22.486;2023-01-01T00:25:34;34.45;;;8.68;;
24030;SDS011;12240;51.142;22.486;2023-01-01T00:28:03;33.80;;;8.60;;
24030;SDS011;12240;51.142;22.486;2023-01-01T00:30:31;26.05;;;7.05;;
24030;SDS011;12240;51.142;22.486;2023-01-01T00:32:59;33.97;;;9.40;;
24030;SDS011;12240;51.142;22.486;2023-01-01T00:35:27;40.03;;;10.15;;
24030;SDS011;12240;51.142;22.486;2023-01-01T00:37:55;31.95;;;8.75;;
24030;SDS011;12240;51.142;22.486;2023-01-01T00:40:23;39.50;;;9.93;;
24030;SDS011;12240;51.142;22.486;2023-01-01T00:42:51;29.10;;;8.40;;
24030;SDS011;12240;51.142;22.486;2023-01-01T00:45:19;36.25;;;9.05;;
24030;SDS011;12240;51.142;22.486;2023-01-01T00:47:49;32.20;;;8.38;;
24030;SDS011;12240;51.142;22.486;2023-01-01T00:50:20;30.55;;;8.25;;
24030;SDS011;12240;51.142;22.486;2023-01-01T00:52:49;29.98;;;8.20;;
24030;SDS011;12240;51.142;22.486;2023-01-01T00:55:17;30.95;;;8.52;;
24030;SDS011;12240;51.142;22.486;2023-01-01T00:57:45;34.83;;;8.25;;
24030;SDS011;12240;51.142;22.486;2023-01-01T01:00:13;37.00;;;9.38;;
24030;SDS011;12240;51.142;22.486;2023-01-01T01:02:42;25.48;;;7.30;;
24030;SDS011;12240;51.142;22.486;2023-01-01T01:05:11;29.45;;;8.30;;
24030;SDS011;12240;51.142;22.486;2023-01-01T01:07:39;31.23;;;8.00;;
24030;SDS011;12240;51.142;22.486;2023-01-01T01:10:08;31.27;;;8.13;;
24030;SDS011;12240;51.142;22.486;2023-01-01T01:12:38;29.35;;;7.60;;
24030;SDS011;12240;51.142;22.486;2023-01-01T01:15:06;29.35;;;7.35;;
24030;SDS011;12240;51.142;22.486;2023-01-01T01:17:36;30.88;;;7.85;;
24030;SDS011;12240;51.142;22.486;2023-01-01T01:20:04;34.10;;;8.35;;
24030;SDS011;12240;51.142;22.486;2023-01-01T01:22:33;33.63;;;8.68;;
24030;SDS011;12240;51.142;22.486;2023-01-01T01:25:02;30.67;;;8.90;;
24030;SDS011;12240;51.142;22.486;2023-01-01T01:27:31;34.25;;;9.55;;
24030;SDS011;12240;51.142;22.486;2023-01-01T01:29:59;35.42;;;8.73;;
24030;SDS011;12240;51.142;22.486;2023-01-01T01:32:27;38.05;;;9.32;;
24030;SDS011;12240;51.142;22.486;2023-01-01T01:34:55;29.25;;;9.07;;
24030;SDS011;12240;51.142;22.486;2023-01-01T01:37:23;37.40;;;9.70;;
24030;SDS011;12240;51.142;22.486;2023-01-01T01:39:51;33.45;;;9.27;;
24030;SDS011;12240;51.142;22.486;2023-01-01T01:42:20;42.05;;;10.80;;
24030;SDS011;12240;51.142;22.486;2023-01-01T01:44:53;31.45;;;9.02;;
24030;SDS011;12240;51.142;22.486;2023-01-01T01:52:45;33.10;;;8.07;;
24030;SDS011;12240;51.142;22.486;2023-01-01T01:55:55;30.48;;;8.73;;
24030;SDS011;12240;51.142;22.486;2023-01-01T01:58:27;42.67;;;10.38;;
24030;SDS011;12240;51.142;22.486;2023-01-01T02:00:57;34.72;;;9.02;;
24030;SDS011;12240;51.142;22.486;2023-01-01T02:03:43;40.58;;;9.85;;
24030;SDS011;12240;51.142;22.486;2023-01-01T02:06:23;41.20;;;10.50;;
24030;SDS011;12240;51.142;22.486;2023-01-01T02:08:56;34.20;;;9.20;;
24030;SDS011;12240;51.142;22.486;2023-01-01T02:11:29;34.85;;;9.00;;
24030;SDS011;12240;51.142;22.486;2023-01-01T02:13:58;33.55;;;9.15;;
24030;SDS011;12240;51.142;22.486;2023-01-01T02:16:32;32.75;;;10.40;;
24030;SDS011;12240;51.142;22.486;2023-01-01T02:31:55;29.35;;;8.18;;
24030;SDS011;12240;51.142;22.486;2023-01-01T02:34:29;29.73;;;7.32;;
24030;SDS011;12240;51.142;22.486;2023-01-01T02:37:07;42.10;;;9.88;;
24030;SDS011;12240;51.142;22.486;2023-01-01T02:39:40;29.48;;;8.70;;
24030;SDS011;12240;51.142;22.486;2023-01-01T02:42:15;42.97;;;10.65;;
24030;SDS011;12240;51.142;22.486;2023-01-01T02:44:44;28.15;;;8.25;;
24030;SDS011;12240;51.142;22.486;2023-01-01T02:47:19;32.30;;;7.85;;
24030;SDS011;12240;51.142;22.486;2023-01-01T02:49:55;25.00;;;7.32;;
24030;SDS011;12240;51.142;22.486;2023-01-01T02:52:44;24.73;;;7.25;;
24030;SDS011;12240;51.142;22.486;2023-01-01T02:58:20;31.52;;;8.80;;
24030;SDS011;12240;51.142;22.486;2023-01-01T03:01:28;38.72;;;9.95;;
24030;SDS011;12240;51.142;22.486;2023-01-01T03:18:55;28.33;;;7.75;;
24030;SDS011;12240;51.142;22.486;2023-01-01T03:24:40;26.75;;;7.35;;
24030;SDS011;12240;51.142;22.486;2023-01-01T03:27:17;24.02;;;7.13;;
24030;SDS011;12240;51.142;22.486;2023-01-01T03:29:54;31.13;;;8.15;;
24030;SDS011;12240;51.142;22.486;2023-01-01T03:33:00;37.50;;;8.13;;
24030;SDS011;12240;51.142;22.486;2023-01-01T03:38:36;28.42;;;7.22;;
24030;SDS011;12240;51.142;22.486;2023-01-01T03:42:00;29.75;;;7.65;;
24030;SDS011;12240;51.142;22.486;2023-01-01T03:44:12;28.17;;;7.43;;
24030;SDS011;12240;51.142;22.486;2023-01-01T03:47:00;24.77;;;6.93;;
24030;SDS011;12240;51.142;22.486;2023-01-01T03:49:32;28.90;;;7.78;;
24030;SDS011;12240;51.142;22.486;2023-01-01T03:52:04;26.70;;;7.57;;
24030;SDS011;12240;51.142;22.486;2023-01-01T03:57:44;31.67;;;7.93;;
24030;SDS011;12240;51.142;22.486;2023-01-01T04:00:32;23.27;;;6.67;;
24030;SDS011;12240;51.142;22.486;2023-01-01T04:03:08;28.73;;;7.55;;
24030;SDS011;12240;51.142;22.486;2023-01-01T04:05:46;23.25;;;6.70;;
24030;SDS011;12240;51.142;22.486;2023-01-01T04:08:15;27.80;;;7.72;;
24030;SDS011;12240;51.142;22.486;2023-01-01T04:10:45;21.05;;;6.60;;
24030;SDS011;12240;51.142;22.486;2023-01-01T04:13:24;31.25;;;8.07;;
24030;SDS011;12240;51.142;22.486;2023-01-01T04:15:52;25.25;;;6.82;;
24030;SDS011;12240;51.142;22.486;2023-01-01T04:18:20;26.08;;;7.22;;
24030;SDS011;12240;51.142;22.486;2023-01-01T04:20:48;20.52;;;6.57;;
24030;SDS011;12240;51.142;22.486;2023-01-01T04:23:16;28.77;;;7.60;;
24030;SDS011;12240;51.142;22.486;2023-01-01T04:25:44;19.95;;;5.45;;
24030;SDS011;12240;51.142;22.486;2023-01-01T04:28:13;29.42;;;7.38;;
24030;SDS011;12240;51.142;22.486;2023-01-01T04:30:42;23.45;;;6.57;;
24030;SDS011;12240;51.142;22.486;2023-01-01T04:33:09;32.63;;;7.82;;
24030;SDS011;12240;51.142;22.486;2023-01-01T04:35:37;30.25;;;7.25;;
24030;SDS011;12240;51.142;22.486;2023-01-01T04:38:06;22.08;;;6.20;;
24030;SDS011;12240;51.142;22.486;2023-01-01T04:40:38;22.08;;;6.05;;
24030;SDS011;12240;51.142;22.486;2023-01-01T04:43:07;26.88;;;7.43;;
24030;SDS011;12240;51.142;22.486;2023-01-01T04:45:37;25.15;;;7.32;;
24030;SDS011;12240;51.142;22.486;2023-01-01T04:48:05;22.80;;;6.20;;
24030;SDS011;12240;51.142;22.486;2023-01-01T04:50:36;20.15;;;6.28;;
24030;SDS011;12240;51.142;22.486;2023-01-01T04:53:04;20.35;;;6.40;;
24030;SDS011;12240;51.142;22.486;2023-01-01T04:55:34;23.40;;;6.95;;
24030;SDS011;12240;51.142;22.486;2023-01-01T04:58:03;25.90;;;6.95;;
24030;SDS011;12240;51.142;22.486;2023-01-01T05:00:32;25.15;;;7.07;;
24030;SDS011;12240;51.142;22.486;2023-01-01T05:03:00;24.30;;;7.60;;
24030;SDS011;12240;51.142;22.486;2023-01-01T05:05:29;26.70;;;7.03;;
24030;SDS011;12240;51.142;22.486;2023-01-01T05:07:57;19.88;;;6.40;;
24030;SDS011;12240;51.142;22.486;2023-01-01T05:10:25;26.08;;;7.40;;
24030;SDS011;12240;51.142;22.486;2023-01-01T05:12:53;20.05;;;6.13;;
24030;SDS011;12240;51.142;22.486;2023-01-01T05:15:21;25.58;;;7.45;;
24030;SDS011;12240;51.142;22.486;2023-01-01T05:17:49;17.35;;;5.55;;
24030;SDS011;12240;51.142;22.486;2023-01-01T05:20:18;28.90;;;7.63;;
24030;SDS011;12240;51.142;22.486;2023-01-01T05:22:46;20.23;;;6.68;;
24030;SDS011;12240;51.142;22.486;2023-01-01T05:25:14;29.85;;;7.65;;
24030;SDS011;12240;51.142;22.486;2023-01-01T05:27:42;26.20;;;7.55;;
24030;SDS011;12240;51.142;22.486;2023-01-01T05:30:10;26.20;;;7.65;;
24030;SDS011;12240;51.142;22.486;2023-01-01T05:32:38;21.55;;;7.13;;
24030;SDS011;12240;51.142;22.486;2023-01-01T05:35:07;21.77;;;6.75;;
24030;SDS011;12240;51.142;22.486;2023-01-01T05:37:35;30.27;;;8.23;;
24030;SDS011;12240;51.142;22.486;2023-01-01T05:40:03;21.27;;;6.70;;
24030;SDS011;12240;51.142;22.486;2023-01-01T05:42:32;20.77;;;6.60;;
24030;SDS011;12240;51.142;22.486;2023-01-01T05:45:00;24.38;;;7.38;;
24030;SDS011;12240;51.142;22.486;2023-01-01T05:47:29;26.15;;;7.57;;
24030;SDS011;12240;51.142;22.486;2023-01-01T05:49:57;21.73;;;6.53;;
24030;SDS011;12240;51.142;22.486;2023-01-01T05:52:25;29.05;;;8.32;;
24030;SDS011;12240;51.142;22.486;2023-01-01T05:54:54;18.95;;;6.30;;
24030;SDS011;12240;51.142;22.486;2023-01-01T05:57:24;30.58;;;8.18;;
24030;SDS011;12240;51.142;22.486;2023-01-01T05:59:52;21.42;;;6.93;;
24030;SDS011;12240;51.142;22.486;2023-01-01T06:02:20;28.60;;;7.68;;
24030;SDS011;12240;51.142;22.486;2023-01-01T06:04:48;24.15;;;7.22;;
24030;SDS011;12240;51.142;22.486;2023-01-01T06:07:16;26.13;;;7.95;;
24030;SDS011;12240;51.142;22.486;2023-01-01T06:09:44;28.58;;;8.18;;
24030;SDS011;12240;51.142;22.486;2023-01-01T06:12:12;34.03;;;9.77;;
24030;SDS011;12240;51.142;22.486;2023-01-01T06:14:41;29.98;;;8.73;;
24030;SDS011;12240;51.142;22.486;2023-01-01T06:17:09;33.47;;;8.90;;
24030;SDS011;12240;51.142;22.486;2023-01-01T06:19:37;35.25;;;9.98;;
24030;SDS011;12240;51.142;22.486;2023-01-01T06:22:05;39.50;;;10.07;;
24030;SDS011;12240;51.142;22.486;2023-01-01T06:24:34;32.70;;;9.60;;
24030;SDS011;12240;51.142;22.486;2023-01-01T06:27:05;31.30;;;8.90;;
24030;SDS011;12240;51.142;22.486;2023-01-01T06:29:33;36.10;;;9.10;;
24030;SDS011;12240;51.142;22.486;2023-01-01T06:32:01;24.58;;;7.90;;
24030;SDS011;12240;51.142;22.486;2023-01-01T06:34:30;23.17;;;7.53;;
24030;SDS011;12240;51.142;22.486;2023-01-01T06:36:59;24.38;;;7.72;;
24030;SDS011;12240;51.142;22.486;2023-01-01T06:39:33;32.47;;;8.80;;
24030;SDS011;12240;51.142;22.486;2023-01-01T06:42:02;28.60;;;8.32;;
24030;SDS011;12240;51.142;22.486;2023-01-01T06:44:30;26.50;;;8.52;;
24030;SDS011;12240;51.142;22.486;2023-01-01T06:46:58;26.23;;;8.20;;
24030;SDS011;12240;51.142;22.486;2023-01-01T06:49:27;33.10;;;9.73;;
24030;SDS011;12240;51.142;22.486;2023-01-01T06:51:55;25.23;;;8.75;;
24030;SDS011;12240;51.142;22.486;2023-01-01T06:54:24;32.78;;;9.05;;
24030;SDS011;12240;51.142;22.486;2023-01-01T06:56:52;27.80;;;8.57;;
24030;SDS011;12240;51.142;22.486;2023-01-01T06:59:20;31.63;;;8.57;;
24030;SDS011;12240;51.142;22.486;2023-01-01T07:01:49;23.60;;;8.35;;
24030;SDS011;12240;51.142;22.486;2023-01-01T07:04:17;32.35;;;8.55;;
24030;SDS011;12240;51.142;22.486;2023-01-01T07:06:46;24.80;;;7.75;;
24030;SDS011;12240;51.142;22.486;2023-01-01T07:09:14;35.30;;;9.43;;
24030;SDS011;12240;51.142;22.486;2023-01-01T07:11:42;28.45;;;8.27;;
24030;SDS011;12240;51.142;22.486;2023-01-01T07:14:10;30.00;;;9.15;;
24030;SDS011;12240;51.142;22.486;2023-01-01T07:16:40;24.63;;;8.27;;
24030;SDS011;12240;51.142;22.486;2023-01-01T07:19:08;24.67;;;8.38;;
24030;SDS011;12240;51.142;22.486;2023-01-01T07:21:40;25.60;;;8.65;;
24030;SDS011;12240;51.142;22.486;2023-01-01T07:24:21;28.35;;;8.93;;
24030;SDS011;12240;51.142;22.486;2023-01-01T07:26:49;19.42;;;6.70;;
24030;SDS011;12240;51.142;22.486;2023-01-01T07:29:17;27.98;;;8.80;;
24030;SDS011;12240;51.142;22.486;2023-01-01T07:31:45;25.58;;;8.95;;
24030;SDS011;12240;51.142;22.486;2023-01-01T07:34:14;29.05;;;9.43;;
24030;SDS011;12240;51.142;22.486;2023-01-01T07:36:45;20.15;;;7.88;;
24030;SDS011;12240;51.142;22.486;2023-01-01T07:39:13;25.80;;;7.97;;
24030;SDS011;12240;51.142;22.486;2023-01-01T07:41:41;25.92;;;8.02;;
24030;SDS011;12240;51.142;22.486;2023-01-01T07:44:12;26.52;;;8.63;;
24030;SDS011;12240;51.142;22.486;2023-01-01T07:46:41;23.20;;;7.82;;
24030;SDS011;12240;51.142;22.486;2023-01-01T07:49:09;24.02;;;7.57;;
24030;SDS011;12240;51.142;22.486;2023-01-01T07:51:37;27.45;;;8.18;;
24030;SDS011;12240;51.142;22.486;2023-01-01T07:54:06;24.75;;;7.88;;
24030;SDS011;12240;51.142;22.486;2023-01-01T07:56:36;18.63;;;6.97;;
24030;SDS011;12240;51.142;22.486;2023-01-01T07:59:04;25.73;;;8.05;;
24030;SDS011;12240;51.142;22.486;2023-01-01T08:01:35;28.00;;;7.85;;
24030;SDS011;12240;51.142;22.486;2023-01-01T08:04:05;24.60;;;7.55;;
24030;SDS011;12240;51.142;22.486;2023-01-01T08:06:33;22.02;;;6.82;;
24030;SDS011;12240;51.142;22.486;2023-01-01T08:09:01;24.38;;;7.28;;
24030;SDS011;12240;51.142;22.486;2023-01-01T08:11:31;22.65;;;7.35;;
24030;SDS011;12240;51.142;22.486;2023-01-01T08:14:00;22.23;;;7.05;;
24030;SDS011;12240;51.142;22.486;2023-01-01T08:16:28;20.73;;;6.93;;
24030;SDS011;12240;51.142;22.486;2023-01-01T08:18:57;21.17;;;6.10;;
24030;SDS011;12240;51.142;22.486;2023-01-01T08:21:25;27.15;;;7.28;;
24030;SDS011;12240;51.142;22.486;2023-01-01T08:23:54;25.05;;;7.70;;
24030;SDS011;12240;51.142;22.486;2023-01-01T08:26:26;30.30;;;8.23;;
24030;SDS011;12240;51.142;22.486;2023-01-01T08:28:58;19.20;;;6.47;;
24030;SDS011;12240;51.142;22.486;2023-01-01T08:31:30;25.67;;;6.93;;
24030;SDS011;12240;51.142;22.486;2023-01-01T08:33:59;23.23;;;7.13;;
24030;SDS011;12240;51.142;22.486;2023-01-01T08:36:27;26.80;;;7.28;;
24030;SDS011;12240;51.142;22.486;2023-01-01T08:38:55;20.98;;;6.53;;
24030;SDS011;12240;51.142;22.486;2023-01-01T08:41:24;30.23;;;8.52;;
24030;SDS011;12240;51.142;22.486;2023-01-01T08:43:52;20.10;;;6.75;;
24030;SDS011;12240;51.142;22.486;2023-01-01T08:46:20;31.80;;;8.07;;
24030;SDS011;12240;51.142;22.486;2023-01-01T08:48:48;20.83;;;6.18;;
24030;SDS011;12240;51.142;22.486;2023-01-01T08:51:17;28.95;;;7.57;;
24030;SDS011;12240;51.142;22.486;2023-01-01T08:53:46;28.52;;;7.40;;
24030;SDS011;12240;51.142;22.486;2023-01-01T08:56:17;46.42;;;10.10;;
24030;SDS011;12240;51.142;22.486;2023-01-01T08:58:46;30.65;;;7.05;;
24030;SDS011;12240;51.142;22.486;2023-01-01T09:01:15;49.17;;;9.40;;
24030;SDS011;12240;51.142;22.486;2023-01-01T09:03:43;33.80;;;7.45;;
24030;SDS011;12240;51.142;22.486;2023-01-01T09:06:12;59.58;;;9.25;;
24030;SDS011;12240;51.142;22.486;2023-01-01T09:08:41;48.65;;;8.20;;
24030;SDS011;12240;51.142;22.486;2023-01-01T09:11:43;38.13;;;7.45;;
24030;SDS011;12240;51.142;22.486;2023-01-01T09:14:03;29.40;;;6.47;;
24030;SDS011;12240;51.142;22.486;2023-01-01T09:16:32;29.70;;;6.93;;
24030;SDS011;12240;51.142;22.486;2023-01-01T09:19:09;44.05;;;8.65;;
24030;SDS011;12240;51.142;22.486;2023-01-01T09:21:38;49.85;;;9.18;;
24030;SDS011;12240;51.142;22.486;2023-01-01T09:24:07;37.85;;;7.32;;
24030;SDS011;12240;51.142;22.486;2023-01-01T09:26:36;30.83;;;6.53;;
24030;SDS011;12240;51.142;22.486;2023-01-01T09:29:05;36.60;;;7.55;;
24030;SDS011;12240;51.142;22.486;2023-01-01T09:31:34;34.00;;;7.50;;
24030;SDS011;12240;51.142;22.486;2023-01-01T09:34:03;27.65;;;6.78;;
24030;SDS011;12240;51.142;22.486;2023-01-01T09:36:32;25.45;;;6.15;;
24030;SDS011;12240;51.142;22.486;2023-01-01T09:39:01;26.60;;;6.82;;
24030;SDS011;12240;51.142;22.486;2023-01-01T09:44:59;39.65;;;7.97;;
24030;SDS011;12240;51.142;22.486;2023-01-01T09:47:59;31.20;;;7.32;;
24030;SDS011;12240;51.142;22.486;2023-01-01T09:50:39;28.25;;;6.68;;
24030;SDS011;12240;51.142;22.486;2023-01-01T09:56:13;32.65;;;7.50;;
24030;SDS011;12240;51.142;22.486;2023-01-01T09:58:46;32.13;;;7.07;;
24030;SDS011;12240;51.142;22.486;2023-01-01T10:04:17;28.90;;;6.90;;
24030;SDS011;12240;51.142;22.486;2023-01-01T10:12:47;33.13;;;7.45;;
24030;SDS011;12240;51.142;22.486;2023-01-01T10:15:39;34.67;;;7.70;;
24030;SDS011;12240;51.142;22.486;2023-01-01T10:18:33;29.33;;;6.80;;
24030;SDS011;12240;51.142;22.486;2023-01-01T10:24:04;31.80;;;7.32;;
24030;SDS011;12240;51.142;22.486;2023-01-01T10:26:49;33.25;;;6.57;;
24030;SDS011;12240;51.142;22.486;2023-01-01T10:29:54;55.23;;;8.40;;
24030;SDS011;12240;51.142;22.486;2023-01-01T10:32:17;48.38;;;8.73;;
24030;SDS011;12240;51.142;22.486;2023-01-01T10:34:52;38.33;;;7.40;;
24030;SDS011;12240;51.142;22.486;2023-01-01T10:37:21;55.05;;;8.07;;
24030;SDS011;12240;51.142;22.486;2023-01-01T10:39:50;31.45;;;6.72;;
24030;SDS011;12240;51.142;22.486;2023-01-01T10:42:18;50.97;;;9.05;;
24030;SDS011;12240;51.142;22.486;2023-01-01T10:44:47;45.50;;;7.90;;
24030;SDS011;12240;51.142;22.486;2023-01-01T10:47:28;67.38;;;9.45;;
24030;SDS011;12240;51.142;22.486;2023-01-01T10:49:59;25.85;;;6.53;;
24030;SDS011;12240;51.142;22.486;2023-01-01T10:52:35;29.63;;;7.28;;
24030;SDS011;12240;51.142;22.486;2023-01-01T10:55:19;33.60;;;7.85;;
24030;SDS011;12240;51.142;22.486;2023-01-01T10:57:52;25.55;;;7.00;;
24030;SDS011;12240;51.142;22.486;2023-01-01T11:00:24;37.67;;;8.43;;
24030;SDS011;12240;51.142;22.486;2023-01-01T11:03:36;30.20;;;7.55;;
24030;SDS011;12240;51.142;22.486;2023-01-01T11:08:37;27.10;;;7.18;;
24030;SDS011;12240;51.142;22.486;2023-01-01T11:11:18;41.67;;;8.77;;
24030;SDS011;12240;51.142;22.486;2023-01-01T11:14:00;23.45;;;6.50;;
24030;SDS011;12240;51.142;22.486;2023-01-01T11:16:35;20.98;;;6.03;;
24030;SDS011;12240;51.142;22.486;2023-01-01T11:19:14;31.23;;;7.60;;
24030;SDS011;12240;51.142;22.486;2023-01-01T11:21:47;29.08;;;7.43;;
24030;SDS011;12240;51.142;22.486;2023-01-01T11:24:17;38.88;;;8.63;;
24030;SDS011;12240;51.142;22.486;2023-01-01T11:26:53;47.97;;;9.88;;
24030;SDS011;12240;51.142;22.486;2023-01-01T11:29:49;29.15;;;7.45;;
24030;SDS011;12240;51.142;22.486;2023-01-01T11:32:27;32.42;;;7.75;;
24030;SDS011;12240;51.142;22.486;2023-01-01T11:35:17;32.72;;;8.00;;
24030;SDS011;12240;51.142;22.486;2023-01-01T11:37:51;26.20;;;7.25;;
24030;SDS011;12240;51.142;22.486;2023-01-01T11:40:22;36.88;;;8.68;;
24030;SDS011;12240;51.142;22.486;2023-01-01T11:42:56;27.48;;;7.07;;
24030;SDS011;12240;51.142;22.486;2023-01-01T11:45:31;29.67;;;7.68;;
24030;SDS011;12240;51.142;22.486;2023-01-01T11:48:10;26.33;;;7.25;;
24030;SDS011;12240;51.142;22.486;2023-01-01T11:51:02;27.77;;;7.25;;
24030;SDS011;12240;51.142;22.486;2023-01-01T11:53:38;31.45;;;8.00;;
24030;SDS011;12240;51.142;22.486;2023-01-01T11:56:16;27.50;;;7.25;;
24030;SDS011;12240;51.142;22.486;2023-01-01T11:58:54;32.13;;;7.80;;
24030;SDS011;12240;51.142;22.486;2023-01-01T12:04:09;28.13;;;7.65;;
24030;SDS011;12240;51.142;22.486;2023-01-01T12:10:05;29.83;;;7.88;;
24030;SDS011;12240;51.142;22.486;2023-01-01T12:12:57;26.63;;;7.40;;
24030;SDS011;12240;51.142;22.486;2023-01-01T12:15:40;28.25;;;7.90;;
24030;SDS011;12240;51.142;22.486;2023-01-01T12:23:51;28.95;;;8.23;;
24030;SDS011;12240;51.142;22.486;2023-01-01T12:26:25;29.92;;;7.97;;
24030;SDS011;12240;51.142;22.486;2023-01-01T12:37:58;26.98;;;7.63;;
24030;SDS011;12240;51.142;22.486;2023-01-01T12:47:28;28.98;;;7.97;;
24030;SDS011;12240;51.142;22.486;2023-01-01T12:53:17;27.92;;;7.68;;
24030;SDS011;12240;51.142;22.486;2023-01-01T12:58:54;19.33;;;6.63;;
24030;SDS011;12240;51.142;22.486;2023-01-01T13:01:30;20.55;;;6.85;;
24030;SDS011;12240;51.142;22.486;2023-01-01T13:04:02;20.88;;;6.88;;
24030;SDS011;12240;51.142;22.486;2023-01-01T13:11:51;22.35;;;6.65;;
24030;SDS011;12240;51.142;22.486;2023-01-01T13:14:38;20.88;;;6.95;;
24030;SDS011;12240;51.142;22.486;2023-01-01T13:17:27;22.55;;;7.43;;
24030;SDS011;12240;51.142;22.486;2023-01-01T13:20:15;18.50;;;6.38;;
24030;SDS011;12240;51.142;22.486;2023-01-01T13:22:51;23.52;;;7.53;;
24030;SDS011;12240;51.142;22.486;2023-01-01T13:25:21;35.00;;;8.82;;
24030;SDS011;12240;51.142;22.486;2023-01-01T13:33:20;20.52;;;7.43;;
24030;SDS011;12240;51.142;22.486;2023-01-01T13:44:21;26.63;;;8.05;;
24030;SDS011;12240;51.142;22.486;2023-01-01T13:55:14;23.73;;;8.60;;
24030;SDS011;12240;51.142;22.486;2023-01-01T14:03:51;24.30;;;8.30;;
24030;SDS011;12240;51.142;22.486;2023-01-01T14:09:21;26.00;;;8.38;;
24030;SDS011;12240;51.142;22.486;2023-01-01T14:11:49;33.17;;;10.55;;
24030;SDS011;12240;51.142;22.486;2023-01-01T14:14:24;34.33;;;11.25;;
24030;SDS011;12240;51.142;22.486;2023-01-01T14:16:58;25.88;;;8.82;;
24030;SDS011;12240;51.142;22.486;2023-01-01T14:19:32;24.35;;;8.35;;
24030;SDS011;12240;51.142;22.486;2023-01-01T14:22:04;25.48;;;8.68;;
24030;SDS011;12240;51.142;22.486;2023-01-01T14:24:39;28.70;;;9.20;;
24030;SDS011;12240;51.142;22.486;2023-01-01T14:27:14;28.90;;;10.10;;
24030;SDS011;12240;51.142;22.486;2023-01-01T14:29:47;23.27;;;8.18;;
24030;SDS011;12240;51.142;22.486;2023-01-01T14:32:21;31.73;;;9.48;;
24030;SDS011;12240;51.142;22.486;2023-01-01T14:34:58;27.08;;;8.70;;
24030;SDS011;12240;51.142;22.486;2023-01-01T14:37:27;32.03;;;9.68;;
24030;SDS011;12240;51.142;22.486;2023-01-01T14:40:07;24.35;;;9.07;;
24030;SDS011;12240;51.142;22.486;2023-01-01T14:42:44;25.92;;;8.95;;
24030;SDS011;12240;51.142;22.486;2023-01-01T14:45:15;34.90;;;9.63;;
24030;SDS011;12240;51.142;22.486;2023-01-01T14:47:46;28.33;;;8.88;;
24030;SDS011;12240;51.142;22.486;2023-01-01T14:53:01;26.48;;;9.23;;
24030;SDS011;12240;51.142;22.486;2023-01-01T14:55:38;35.92;;;10.25;;
24030;SDS011;12240;51.142;22.486;2023-01-01T14:58:16;30.70;;;9.90;;
24030;SDS011;12240;51.142;22.486;2023-01-01T15:00:50;30.63;;;9.07;;
24030;SDS011;12240;51.142;22.486;2023-01-01T15:03:20;37.88;;;10.55;;
24030;SDS011;12240;51.142;22.486;2023-01-01T15:06:00;28.65;;;9.48;;
24030;SDS011;12240;51.142;22.486;2023-01-01T15:08:29;26.20;;;8.93;;
24030;SDS011;12240;51.142;22.486;2023-01-01T15:11:01;28.95;;;9.43;;
24030;SDS011;12240;51.142;22.486;2023-01-01T15:13:30;32.22;;;11.68;;
24030;SDS011;12240;51.142;22.486;2023-01-01T15:16:16;27.75;;;9.05;;
24030;SDS011;12240;51.142;22.486;2023-01-01T15:18:46;40.05;;;11.32;;
24030;SDS011;12240;51.142;22.486;2023-01-01T15:23:59;30.15;;;9.18;;
24030;SDS011;12240;51.142;22.486;2023-01-01T15:26:52;35.78;;;10.05;;
24030;SDS011;12240;51.142;22.486;2023-01-01T15:29:32;32.13;;;9.85;;
24030;SDS011;12240;51.142;22.486;2023-01-01T15:32:12;40.63;;;11.52;;
24030;SDS011;12240;51.142;22.486;2023-01-01T15:37:16;36.88;;;9.65;;
24030;SDS011;12240;51.142;22.486;2023-01-01T15:45:30;41.17;;;11.55;;
24030;SDS011;12240;51.142;22.486;2023-01-01T15:51:11;27.85;;;8.93;;
24030;SDS011;12240;51.142;22.486;2023-01-01T15:53:46;38.83;;;11.40;;
24030;SDS011;12240;51.142;22.486;2023-01-01T15:56:18;41.15;;;11.45;;
24030;SDS011;12240;51.142;22.486;2023-01-01T15:59:04;31.40;;;9.77;;
24030;SDS011;12240;51.142;22.486;2023-01-01T16:01:48;29.48;;;10.15;;
24030;SDS011;12240;51.142;22.486;2023-01-01T16:04:18;34.47;;;11.73;;
24030;SDS011;12240;51.142;22.486;2023-01-01T16:06:55;29.48;;;9.50;;
24030;SDS011;12240;51.142;22.486;2023-01-01T16:09:25;34.08;;;10.32;;
24030;SDS011;12240;51.142;22.486;2023-01-01T16:11:55;28.98;;;10.02;;
24030;SDS011;12240;51.142;22.486;2023-01-01T16:14:25;40.33;;;11.82;;
24030;SDS011;12240;51.142;22.486;2023-01-01T16:16:54;27.80;;;9.68;;
24030;SDS011;12240;51.142;22.486;2023-01-01T16:19:30;38.50;;;11.82;;
24030;SDS011;12240;51.142;22.486;2023-01-01T16:22:00;33.10;;;11.75;;
24030;SDS011;12240;51.142;22.486;2023-01-01T16:24:29;31.35;;;11.38;;
24030;SDS011;12240;51.142;22.486;2023-01-01T16:27:04;37.85;;;11.68;;
24030;SDS011;12240;51.142;22.486;2023-01-01T16:29:32;35.58;;;11.45;;
24030;SDS011;12240;51.142;22.486;2023-01-01T16:32:01;32.33;;;11.20;;
24030;SDS011;12240;51.142;22.486;2023-01-01T16:34:29;30.17;;;10.00;;
24030;SDS011;12240;51.142;22.486;2023-01-01T16:36:58;25.00;;;9.18;;
24030;SDS011;12240;51.142;22.486;2023-01-01T16:39:26;33.10;;;10.45;;
24030;SDS011;12240;51.142;22.486;2023-01-01T16:41:55;24.83;;;8.38;;
24030;SDS011;12240;51.142;22.486;2023-01-01T16:44:24;35.15;;;11.02;;
24030;SDS011;12240;51.142;22.486;2023-01-01T16:46:53;31.85;;;10.82;;
24030;SDS011;12240;51.142;22.486;2023-01-01T16:49:23;41.35;;;11.38;;
24030;SDS011;12240;51.142;22.486;2023-01-01T16:51:51;27.35;;;10.00;;
24030;SDS011;12240;51.142;22.486;2023-01-01T16:54:19;39.25;;;11.07;;
24030;SDS011;12240;51.142;22.486;2023-01-01T16:56:47;26.98;;;9.82;;
24030;SDS011;12240;51.142;22.486;2023-01-01T16:59:17;44.05;;;12.80;;
24030;SDS011;12240;51.142;22.486;2023-01-01T17:01:46;36.83;;;11.60;;
24030;SDS011;12240;51.142;22.486;2023-01-01T17:04:15;39.20;;;11.77;;
24030;SDS011;12240;51.142;22.486;2023-01-01T17:06:44;34.38;;;11.20;;
24030;SDS011;12240;51.142;22.486;2023-01-01T17:09:13;44.08;;;12.10;;
24030;SDS011;12240;51.142;22.486;2023-01-01T17:11:41;32.47;;;11.25;;
24030;SDS011;12240;51.142;22.486;2023-01-01T17:16:41;39.05;;;10.63;;
24030;SDS011;12240;51.142;22.486;2023-01-01T17:19:10;34.28;;;10.35;;
24030;SDS011;12240;51.142;22.486;2023-01-01T17:21:44;43.63;;;12.00;;
24030;SDS011;12240;51.142;22.486;2023-01-01T17:24:14;48.00;;;11.95;;
24030;SDS011;12240;51.142;22.486;2023-01-01T17:26:44;33.75;;;11.13;;